This is the latest recevied weather packets stored in our database for station/object KN6DHD. If no packets are shown the sender has not sent any weather packets the latest 10 day(s).
| Time | Temp. | Humidity | Pressure | Rain* | Wind** | Luminosity | Snow |
|---|---|---|---|---|---|---|---|
| 1777063255 | 20° C | 60% | 1013.1 hPa | 0 mm | - | 540 W/m² | - |
| 1777062951 | 20° C | 61% | 1013.3 hPa | 0 mm | - | 582 W/m² | - |
| 1777062649 | 19.44° C | 63% | 1013.1 hPa | 0 mm | - | 399 W/m² | - |
| 1777062346 | 20° C | 63% | 1013.2 hPa | 0 mm | - | 261 W/m² | - |
| 1777062044 | 20° C | 63% | 1013.1 hPa | 0 mm | - | 291 W/m² | - |
| 1777061740 | 20.56° C | 62% | 1013.4 hPa | 0 mm | - | 256 W/m² | - |
| 1777061436 | 20.56° C | 62% | 1013 hPa | 0 mm | - | 419 W/m² | - |
| 1777061132 | 20.56° C | 61% | 1013.2 hPa | 0 mm | - | 587 W/m² | - |
| 1777060827 | 20° C | 62% | 1013.3 hPa | 0 mm | - | 567 W/m² | - |
| 1777060523 | 19.44° C | 64% | 1013.4 hPa | 0 mm | - | 524 W/m² | - |
| 1777060219 | 18.89° C | 65% | 1013.6 hPa | 0 mm | - | 421 W/m² | - |
| 1777059915 | 19.44° C | 64% | 1013.6 hPa | 0 mm | - | 266 W/m² | - |
| 1777059611 | 20.56° C | 63% | 1013.8 hPa | 0 mm | - | 253 W/m² | - |
| 1777059309 | 20.56° C | 61% | 1013.6 hPa | 0 mm | - | 377 W/m² | - |
| 1777059005 | 19.44° C | 64% | 1013.7 hPa | 0 mm | - | 588 W/m² | - |
| 1777058704 | 18.89° C | 63% | 1013.6 hPa | 0 mm | - | 551 W/m² | - |
| 1777058400 | 18.89° C | 62% | 1013.6 hPa | 0 mm | - | 392 W/m² | - |
| 1777058097 | 18.89° C | 66% | 1013.7 hPa | 0 mm | - | 384 W/m² | - |
| 1777057792 | 18.89° C | 65% | 1014 hPa | 0 mm | - | 356 W/m² | - |
| 1777057487 | 18.89° C | 65% | 1014.1 hPa | 0 mm | - | 362 W/m² | - |
| 1777057183 | 18.89° C | 64% | 1014.2 hPa | 0 mm | - | 593 W/m² | - |
| 1777056879 | 18.33° C | 69% | 1014 hPa | 0 mm | - | 429 W/m² | - |
| 1777056578 | 18.33° C | 69% | 1014.2 hPa | 0 mm | - | 317 W/m² | - |
| 1777056273 | 18.33° C | 68% | 1014.2 hPa | 0 mm | - | 249 W/m² | - |
| 1777055970 | 18.33° C | 68% | 1014.1 hPa | 0 mm | - | 248 W/m² | - |
* Rain latest hour (hover to see other rain measurements)
** Current wind speed in m/s (hover to see current wind gust speed)